Dame Des Tropiques — FQJE — position and weather

sailwx.info

Track history (hours):
 
Tides and Currents Weather Stations Pressure Air Temp Water Temp Dewpoint Dewpoint Depression Visibility Wind Speed Wind Dir Waves Ship Positions

Dame Des Tropiques

Last reported at 2016-Jun-10 01:29 UTC. Time now 2016-Jun-28 11:36 UTC.
Position N 49°44' W 002°12'.
Warning: this ship's position is 18 days out of date.

Length 28 m.

Type: Sailing vessel. MMSI: 347002100.

Date/timePositionNaut miles runAvg speedWind from/ knotsBaromVisibWave heightAir tempDewpointWater temp
2016-Jun-10 01:29N 49°44' W 002°12'0 0.0
2016-Jun-10 00:29N 49°44' W 002°12'0 0.0
2016-Jun-09 23:32N 49°44' W 002°12'0 0.0
2016-Jun-09 22:26N 49°44' W 002°12'0 0.0
2016-Jun-09 21:32N 49°44' W 002°12'0 0.0
2016-Jun-09 20:23N 49°44' W 002°12'0 0.0
2016-Jun-09 18:32N 49°44' W 002°12'0 0.1
2016-Jun-09 17:33N 49°44' W 002°12'4 3.5
2016-Jun-09 16:31N 49°42' W 002°07'3 3.4
2016-Jun-09 15:31N 49°39' W 002°06'5 5.1
2016-Jun-09 14:31N 49°34' W 002°04'7 6.9
2016-Jun-09 13:33N 49°28' W 002°00'41 7.7
2016-Jun-09 08:15N 48°50' W 001°37'  
2016-Jun-05 01:15N 48°50' W 001°36'0 0.0
2016-Jun-05 00:18N 48°50' W 001°36'0 0.0
2016-Jun-04 23:24N 48°50' W 001°36'10 0.7
2016-Jun-04 09:18N 48°52' W 001°51'3 3.5
2016-Jun-04 08:29N 48°54' W 001°49'5 5.0
2016-Jun-04 07:33N 48°51' W 001°44'  
Track history (hours):
 
Tides and Currents Weather Stations Pressure Air Temp Water Temp Dewpoint Dewpoint Depression Visibility Wind Speed Wind Dir Waves Ship Positions

Dame Des Tropiques

Last reported at 2016-Jun-10 01:29 UTC. Time now 2016-Jun-28 11:36 UTC.
Position N 49°44' W 002°12'.
Warning: this ship's position is 18 days out of date.

Length 28 m.

Type: Sailing vessel. MMSI: 347002100.

Date/timePositionNaut miles runAvg speedWind from/ knotsBaromVisibWave heightAir tempDewpointWater temp
2016-Jun-10 01:29N 49°44' W 002°12'0 0.0
2016-Jun-10 00:29N 49°44' W 002°12'0 0.0
2016-Jun-09 23:32N 49°44' W 002°12'0 0.0
2016-Jun-09 22:26N 49°44' W 002°12'0 0.0
2016-Jun-09 21:32N 49°44' W 002°12'0 0.0
2016-Jun-09 20:23N 49°44' W 002°12'0 0.0
2016-Jun-09 18:32N 49°44' W 002°12'0 0.1
2016-Jun-09 17:33N 49°44' W 002°12'4 3.5
2016-Jun-09 16:31N 49°42' W 002°07'3 3.4
2016-Jun-09 15:31N 49°39' W 002°06'5 5.1
2016-Jun-09 14:31N 49°34' W 002°04'7 6.9
2016-Jun-09 13:33N 49°28' W 002°00'41 7.7
2016-Jun-09 08:15N 48°50' W 001°37'  
2016-Jun-05 01:15N 48°50' W 001°36'0 0.0
2016-Jun-05 00:18N 48°50' W 001°36'0 0.0
2016-Jun-04 23:24N 48°50' W 001°36'10 0.7
2016-Jun-04 09:18N 48°52' W 001°51'3 3.5
2016-Jun-04 08:29N 48°54' W 001°49'5 5.0
2016-Jun-04 07:33N 48°51' W 001°44'  

Dump ship's entire track history